sensor_id;sensor_type;location;lat;lon;timestamp;P1;durP1;ratioP1;P2;durP2;ratioP2
428;SDS011;201;48.758;9.290;2022-08-20T00:00:38;7.30;;;4.47;;
428;SDS011;201;48.758;9.290;2022-08-20T00:03:12;4.70;;;4.40;;
428;SDS011;201;48.758;9.290;2022-08-20T00:05:45;5.67;;;5.40;;
428;SDS011;201;48.758;9.290;2022-08-20T00:08:18;7.23;;;5.17;;
428;SDS011;201;48.758;9.290;2022-08-20T00:10:46;5.73;;;5.43;;
428;SDS011;201;48.758;9.290;2022-08-20T00:13:14;5.83;;;4.50;;
428;SDS011;201;48.758;9.290;2022-08-20T00:15:46;5.50;;;4.93;;
428;SDS011;201;48.758;9.290;2022-08-20T00:18:12;5.17;;;4.20;;
428;SDS011;201;48.758;9.290;2022-08-20T00:20:39;7.83;;;4.73;;
428;SDS011;201;48.758;9.290;2022-08-20T00:23:07;3.63;;;3.43;;
428;SDS011;201;48.758;9.290;2022-08-20T00:25:34;3.60;;;3.40;;
428;SDS011;201;48.758;9.290;2022-08-20T00:27:59;3.50;;;3.30;;
428;SDS011;201;48.758;9.290;2022-08-20T00:30:27;7.53;;;3.40;;
428;SDS011;201;48.758;9.290;2022-08-20T00:33:05;3.20;;;3.00;;
428;SDS011;201;48.758;9.290;2022-08-20T00:35:40;3.80;;;3.60;;
428;SDS011;201;48.758;9.290;2022-08-20T00:38:08;2.93;;;2.40;;
428;SDS011;201;48.758;9.290;2022-08-20T00:40:36;4.53;;;2.87;;
428;SDS011;201;48.758;9.290;2022-08-20T00:43:23;3.50;;;3.30;;
428;SDS011;201;48.758;9.290;2022-08-20T00:46:11;5.77;;;2.23;;
428;SDS011;201;48.758;9.290;2022-08-20T00:48:49;3.17;;;3.00;;
428;SDS011;201;48.758;9.290;2022-08-20T00:51:24;2.47;;;2.13;;
428;SDS011;201;48.758;9.290;2022-08-20T00:54:08;2.53;;;2.33;;
428;SDS011;201;48.758;9.290;2022-08-20T00:56:40;2.83;;;2.20;;
428;SDS011;201;48.758;9.290;2022-08-20T00:59:08;2.90;;;2.57;;
428;SDS011;201;48.758;9.290;2022-08-20T01:01:39;2.23;;;2.03;;
428;SDS011;201;48.758;9.290;2022-08-20T01:04:06;4.67;;;2.10;;
428;SDS011;201;48.758;9.290;2022-08-20T01:06:31;5.07;;;2.70;;
428;SDS011;201;48.758;9.290;2022-08-20T01:08:57;3.50;;;2.50;;
428;SDS011;201;48.758;9.290;2022-08-20T01:11:26;2.60;;;2.03;;
428;SDS011;201;48.758;9.290;2022-08-20T01:13:57;7.20;;;6.40;;
428;SDS011;201;48.758;9.290;2022-08-20T01:16:26;7.67;;;6.87;;
428;SDS011;201;48.758;9.290;2022-08-20T01:18:55;6.27;;;5.93;;
428;SDS011;201;48.758;9.290;2022-08-20T01:21:24;7.83;;;5.33;;
428;SDS011;201;48.758;9.290;2022-08-20T01:24:02;5.93;;;5.60;;
428;SDS011;201;48.758;9.290;2022-08-20T01:26:36;5.80;;;4.90;;
428;SDS011;201;48.758;9.290;2022-08-20T01:29:15;5.40;;;4.47;;
428;SDS011;201;48.758;9.290;2022-08-20T01:31:44;6.93;;;3.97;;
428;SDS011;201;48.758;9.290;2022-08-20T01:34:11;3.70;;;3.20;;
428;SDS011;201;48.758;9.290;2022-08-20T01:36:40;4.27;;;3.60;;
428;SDS011;201;48.758;9.290;2022-08-20T01:39:08;3.20;;;3.00;;
428;SDS011;201;48.758;9.290;2022-08-20T01:44:21;5.70;;;5.07;;
428;SDS011;201;48.758;9.290;2022-08-20T01:46:47;8.10;;;7.70;;
428;SDS011;201;48.758;9.290;2022-08-20T01:49:16;9.10;;;8.50;;
428;SDS011;201;48.758;9.290;2022-08-20T01:51:51;8.33;;;7.90;;
428;SDS011;201;48.758;9.290;2022-08-20T01:54:18;8.03;;;7.63;;
428;SDS011;201;48.758;9.290;2022-08-20T01:56:49;10.03;;;8.17;;
428;SDS011;201;48.758;9.290;2022-08-20T01:59:18;8.73;;;8.23;;
428;SDS011;201;48.758;9.290;2022-08-20T02:01:44;9.60;;;9.10;;
428;SDS011;201;48.758;9.290;2022-08-20T02:04:09;9.93;;;9.43;;
428;SDS011;201;48.758;9.290;2022-08-20T02:06:40;12.13;;;8.67;;
428;SDS011;201;48.758;9.290;2022-08-20T02:09:08;9.70;;;9.20;;
428;SDS011;201;48.758;9.290;2022-08-20T02:11:35;10.60;;;9.90;;
428;SDS011;201;48.758;9.290;2022-08-20T02:14:03;9.30;;;8.80;;
428;SDS011;201;48.758;9.290;2022-08-20T02:16:33;9.47;;;7.90;;
428;SDS011;201;48.758;9.290;2022-08-20T02:19:09;7.90;;;7.50;;
428;SDS011;201;48.758;9.290;2022-08-20T02:21:39;8.90;;;8.40;;
428;SDS011;201;48.758;9.290;2022-08-20T02:24:08;8.20;;;7.90;;
428;SDS011;201;48.758;9.290;2022-08-20T02:26:34;11.60;;;7.77;;
428;SDS011;201;48.758;9.290;2022-08-20T02:29:01;9.10;;;8.60;;
428;SDS011;201;48.758;9.290;2022-08-20T02:31:29;7.83;;;7.43;;
428;SDS011;201;48.758;9.290;2022-08-20T02:33:55;11.10;;;8.63;;
428;SDS011;201;48.758;9.290;2022-08-20T02:36:20;7.53;;;7.07;;
428;SDS011;201;48.758;9.290;2022-08-20T02:38:46;7.50;;;7.10;;
428;SDS011;201;48.758;9.290;2022-08-20T02:41:12;7.10;;;6.70;;
428;SDS011;201;48.758;9.290;2022-08-20T02:43:39;7.70;;;7.30;;
428;SDS011;201;48.758;9.290;2022-08-20T02:46:05;7.40;;;6.93;;
428;SDS011;201;48.758;9.290;2022-08-20T02:48:31;8.10;;;6.27;;
428;SDS011;201;48.758;9.290;2022-08-20T02:50:59;6.60;;;6.20;;
428;SDS011;201;48.758;9.290;2022-08-20T02:53:28;8.33;;;7.03;;
428;SDS011;201;48.758;9.290;2022-08-20T02:55:56;6.50;;;6.10;;
428;SDS011;201;48.758;9.290;2022-08-20T02:58:22;10.30;;;6.47;;
428;SDS011;201;48.758;9.290;2022-08-20T03:00:48;7.40;;;6.13;;
428;SDS011;201;48.758;9.290;2022-08-20T03:03:14;6.77;;;6.37;;
428;SDS011;201;48.758;9.290;2022-08-20T03:05:41;6.10;;;5.80;;
428;SDS011;201;48.758;9.290;2022-08-20T03:08:09;7.73;;;6.13;;
428;SDS011;201;48.758;9.290;2022-08-20T03:10:37;6.17;;;5.87;;
428;SDS011;201;48.758;9.290;2022-08-20T03:13:03;7.57;;;6.70;;
428;SDS011;201;48.758;9.290;2022-08-20T03:15:30;6.67;;;6.30;;
428;SDS011;201;48.758;9.290;2022-08-20T03:17:57;9.43;;;7.80;;
428;SDS011;201;48.758;9.290;2022-08-20T03:20:24;8.43;;;8.00;;
428;SDS011;201;48.758;9.290;2022-08-20T03:22:50;7.47;;;6.77;;
428;SDS011;201;48.758;9.290;2022-08-20T03:25:16;7.90;;;7.50;;
428;SDS011;201;48.758;9.290;2022-08-20T03:27:42;6.40;;;6.00;;
428;SDS011;201;48.758;9.290;2022-08-20T03:30:09;6.90;;;6.50;;
428;SDS011;201;48.758;9.290;2022-08-20T03:32:37;6.93;;;6.53;;
428;SDS011;201;48.758;9.290;2022-08-20T03:35:04;7.37;;;6.80;;
428;SDS011;201;48.758;9.290;2022-08-20T03:37:32;7.50;;;6.00;;
428;SDS011;201;48.758;9.290;2022-08-20T03:39:59;7.90;;;6.20;;
428;SDS011;201;48.758;9.290;2022-08-20T03:42:25;7.73;;;6.73;;
428;SDS011;201;48.758;9.290;2022-08-20T03:44:51;6.90;;;6.50;;
428;SDS011;201;48.758;9.290;2022-08-20T03:47:17;6.80;;;6.40;;
428;SDS011;201;48.758;9.290;2022-08-20T03:49:43;6.90;;;5.70;;
428;SDS011;201;48.758;9.290;2022-08-20T03:52:09;6.00;;;5.70;;
428;SDS011;201;48.758;9.290;2022-08-20T03:54:34;5.70;;;5.33;;
428;SDS011;201;48.758;9.290;2022-08-20T03:57:00;6.13;;;5.83;;
428;SDS011;201;48.758;9.290;2022-08-20T03:59:27;7.17;;;5.87;;
428;SDS011;201;48.758;9.290;2022-08-20T04:01:53;6.20;;;5.90;;
428;SDS011;201;48.758;9.290;2022-08-20T04:04:20;5.63;;;5.40;;
428;SDS011;201;48.758;9.290;2022-08-20T04:06:46;6.20;;;5.43;;
428;SDS011;201;48.758;9.290;2022-08-20T04:09:12;5.70;;;5.30;;
428;SDS011;201;48.758;9.290;2022-08-20T04:11:41;7.90;;;6.10;;
428;SDS011;201;48.758;9.290;2022-08-20T04:14:08;5.30;;;5.00;;
428;SDS011;201;48.758;9.290;2022-08-20T04:16:34;5.70;;;5.40;;
428;SDS011;201;48.758;9.290;2022-08-20T04:19:01;5.60;;;5.30;;
428;SDS011;201;48.758;9.290;2022-08-20T04:21:31;6.93;;;5.77;;
428;SDS011;201;48.758;9.290;2022-08-20T04:23:58;5.53;;;4.73;;
428;SDS011;201;48.758;9.290;2022-08-20T04:26:24;11.37;;;5.43;;
428;SDS011;201;48.758;9.290;2022-08-20T04:28:49;7.73;;;7.33;;
428;SDS011;201;48.758;9.290;2022-08-20T04:31:16;6.83;;;6.43;;
428;SDS011;201;48.758;9.290;2022-08-20T04:33:42;5.07;;;4.77;;
428;SDS011;201;48.758;9.290;2022-08-20T04:36:08;6.17;;;5.90;;
428;SDS011;201;48.758;9.290;2022-08-20T04:38:34;7.27;;;5.20;;
428;SDS011;201;48.758;9.290;2022-08-20T04:41:00;5.70;;;5.40;;
428;SDS011;201;48.758;9.290;2022-08-20T04:43:30;10.73;;;5.20;;
428;SDS011;201;48.758;9.290;2022-08-20T04:46:02;5.93;;;5.63;;
428;SDS011;201;48.758;9.290;2022-08-20T04:48:30;6.13;;;4.43;;
428;SDS011;201;48.758;9.290;2022-08-20T04:50:58;5.43;;;5.17;;
428;SDS011;201;48.758;9.290;2022-08-20T04:53:26;8.10;;;6.33;;
428;SDS011;201;48.758;9.290;2022-08-20T04:55:53;6.43;;;5.00;;
428;SDS011;201;48.758;9.290;2022-08-20T04:58:22;5.57;;;5.27;;
428;SDS011;201;48.758;9.290;2022-08-20T05:00:52;6.53;;;4.27;;
428;SDS011;201;48.758;9.290;2022-08-20T05:03:19;6.70;;;5.10;;
428;SDS011;201;48.758;9.290;2022-08-20T05:05:46;4.40;;;4.10;;
428;SDS011;201;48.758;9.290;2022-08-20T05:08:13;6.27;;;4.60;;
428;SDS011;201;48.758;9.290;2022-08-20T05:10:40;6.37;;;5.17;;
428;SDS011;201;48.758;9.290;2022-08-20T05:13:06;6.07;;;4.43;;
428;SDS011;201;48.758;9.290;2022-08-20T05:15:32;4.90;;;4.53;;
428;SDS011;201;48.758;9.290;2022-08-20T05:18:00;4.93;;;4.63;;
428;SDS011;201;48.758;9.290;2022-08-20T05:20:27;5.50;;;5.10;;
428;SDS011;201;48.758;9.290;2022-08-20T05:22:57;5.23;;;4.93;;
428;SDS011;201;48.758;9.290;2022-08-20T05:25:23;7.80;;;5.37;;
428;SDS011;201;48.758;9.290;2022-08-20T05:27:49;8.10;;;5.97;;
428;SDS011;201;48.758;9.290;2022-08-20T05:30:24;6.27;;;5.90;;
428;SDS011;201;48.758;9.290;2022-08-20T05:32:53;5.73;;;5.43;;
428;SDS011;201;48.758;9.290;2022-08-20T05:35:19;7.33;;;5.97;;
428;SDS011;201;48.758;9.290;2022-08-20T05:37:44;9.47;;;5.17;;
428;SDS011;201;48.758;9.290;2022-08-20T05:40:11;6.70;;;6.30;;
428;SDS011;201;48.758;9.290;2022-08-20T05:42:38;6.40;;;5.57;;
428;SDS011;201;48.758;9.290;2022-08-20T05:45:04;6.43;;;6.03;;
428;SDS011;201;48.758;9.290;2022-08-20T05:47:31;6.23;;;5.90;;
428;SDS011;201;48.758;9.290;2022-08-20T05:49:57;6.27;;;5.93;;
428;SDS011;201;48.758;9.290;2022-08-20T05:52:23;6.93;;;6.53;;
428;SDS011;201;48.758;9.290;2022-08-20T05:54:48;6.40;;;5.90;;
428;SDS011;201;48.758;9.290;2022-08-20T05:57:17;5.90;;;5.60;;
428;SDS011;201;48.758;9.290;2022-08-20T05:59:43;6.50;;;6.17;;
428;SDS011;201;48.758;9.290;2022-08-20T06:02:09;7.00;;;6.60;;
428;SDS011;201;48.758;9.290;2022-08-20T06:04:55;7.00;;;6.60;;
428;SDS011;201;48.758;9.290;2022-08-20T06:07:20;6.70;;;6.30;;
428;SDS011;201;48.758;9.290;2022-08-20T06:09:46;5.80;;;5.50;;
428;SDS011;201;48.758;9.290;2022-08-20T06:12:13;6.10;;;5.90;;
428;SDS011;201;48.758;9.290;2022-08-20T06:14:39;7.20;;;6.80;;
428;SDS011;201;48.758;9.290;2022-08-20T06:17:06;6.70;;;6.30;;
428;SDS011;201;48.758;9.290;2022-08-20T06:19:33;6.33;;;5.97;;
428;SDS011;201;48.758;9.290;2022-08-20T06:22:00;6.63;;;5.97;;
428;SDS011;201;48.758;9.290;2022-08-20T06:24:26;6.10;;;5.80;;
428;SDS011;201;48.758;9.290;2022-08-20T06:26:55;6.57;;;6.20;;
428;SDS011;201;48.758;9.290;2022-08-20T06:29:26;9.27;;;5.60;;
428;SDS011;201;48.758;9.290;2022-08-20T06:31:52;7.17;;;5.90;;
428;SDS011;201;48.758;9.290;2022-08-20T06:34:18;6.00;;;5.70;;
428;SDS011;201;48.758;9.290;2022-08-20T06:36:44;6.43;;;5.23;;
428;SDS011;201;48.758;9.290;2022-08-20T06:39:11;6.50;;;6.10;;
428;SDS011;201;48.758;9.290;2022-08-20T06:41:37;6.07;;;5.77;;
428;SDS011;201;48.758;9.290;2022-08-20T06:44:04;8.03;;;5.63;;
428;SDS011;201;48.758;9.290;2022-08-20T06:46:31;5.23;;;4.93;;
428;SDS011;201;48.758;9.290;2022-08-20T06:49:01;5.73;;;5.43;;
428;SDS011;201;48.758;9.290;2022-08-20T06:51:28;6.07;;;5.77;;
428;SDS011;201;48.758;9.290;2022-08-20T06:53:54;5.30;;;5.00;;
428;SDS011;201;48.758;9.290;2022-08-20T06:56:20;5.40;;;4.43;;
428;SDS011;201;48.758;9.290;2022-08-20T06:58:46;5.23;;;4.20;;
428;SDS011;201;48.758;9.290;2022-08-20T07:01:12;5.57;;;4.90;;
428;SDS011;201;48.758;9.290;2022-08-20T07:03:38;6.20;;;4.67;;
428;SDS011;201;48.758;9.290;2022-08-20T07:06:05;5.20;;;4.43;;
428;SDS011;201;48.758;9.290;2022-08-20T07:08:31;5.23;;;4.03;;
428;SDS011;201;48.758;9.290;2022-08-20T07:10:58;4.70;;;4.40;;
428;SDS011;201;48.758;9.290;2022-08-20T07:13:23;6.67;;;4.90;;
428;SDS011;201;48.758;9.290;2022-08-20T07:15:49;4.47;;;4.10;;
428;SDS011;201;48.758;9.290;2022-08-20T07:18:15;4.87;;;4.57;;
428;SDS011;201;48.758;9.290;2022-08-20T07:20:41;6.87;;;5.07;;
428;SDS011;201;48.758;9.290;2022-08-20T07:23:08;4.20;;;3.90;;
428;SDS011;201;48.758;9.290;2022-08-20T07:25:35;5.23;;;4.97;;
428;SDS011;201;48.758;9.290;2022-08-20T07:28:06;4.90;;;4.60;;
428;SDS011;201;48.758;9.290;2022-08-20T07:30:33;4.90;;;4.43;;
428;SDS011;201;48.758;9.290;2022-08-20T07:33:18;5.17;;;4.70;;
428;SDS011;201;48.758;9.290;2022-08-20T07:35:43;4.60;;;4.30;;
428;SDS011;201;48.758;9.290;2022-08-20T07:38:13;5.40;;;4.20;;
428;SDS011;201;48.758;9.290;2022-08-20T07:40:42;6.73;;;5.60;;
428;SDS011;201;48.758;9.290;2022-08-20T07:43:08;11.23;;;5.33;;
428;SDS011;201;48.758;9.290;2022-08-20T07:45:34;5.13;;;4.90;;
428;SDS011;201;48.758;9.290;2022-08-20T07:48:08;5.00;;;4.70;;
428;SDS011;201;48.758;9.290;2022-08-20T07:50:36;7.63;;;5.70;;
428;SDS011;201;48.758;9.290;2022-08-20T07:53:03;5.40;;;5.10;;
428;SDS011;201;48.758;9.290;2022-08-20T07:55:29;5.23;;;4.73;;
428;SDS011;201;48.758;9.290;2022-08-20T07:57:55;5.50;;;5.20;;
428;SDS011;201;48.758;9.290;2022-08-20T08:00:23;6.07;;;5.77;;
428;SDS011;201;48.758;9.290;2022-08-20T08:02:50;5.07;;;4.80;;
428;SDS011;201;48.758;9.290;2022-08-20T08:05:16;5.60;;;4.97;;
428;SDS011;201;48.758;9.290;2022-08-20T08:07:42;5.30;;;5.00;;
428;SDS011;201;48.758;9.290;2022-08-20T08:10:08;7.27;;;5.10;;
428;SDS011;201;48.758;9.290;2022-08-20T08:12:39;5.60;;;5.30;;
428;SDS011;201;48.758;9.290;2022-08-20T08:15:09;4.80;;;4.50;;
428;SDS011;201;48.758;9.290;2022-08-20T08:17:36;5.60;;;5.30;;
428;SDS011;201;48.758;9.290;2022-08-20T08:20:03;5.10;;;4.07;;
428;SDS011;201;48.758;9.290;2022-08-20T08:22:30;4.40;;;4.10;;
428;SDS011;201;48.758;9.290;2022-08-20T08:24:56;4.17;;;3.93;;
428;SDS011;201;48.758;9.290;2022-08-20T08:27:26;4.80;;;4.50;;
428;SDS011;201;48.758;9.290;2022-08-20T08:29:58;4.00;;;3.80;;
428;SDS011;201;48.758;9.290;2022-08-20T08:32:25;5.03;;;3.70;;
428;SDS011;201;48.758;9.290;2022-08-20T08:34:51;4.03;;;3.83;;
428;SDS011;201;48.758;9.290;2022-08-20T08:37:17;3.60;;;3.40;;
428;SDS011;201;48.758;9.290;2022-08-20T08:39:42;5.00;;;3.70;;
428;SDS011;201;48.758;9.290;2022-08-20T08:42:16;4.20;;;3.93;;
428;SDS011;201;48.758;9.290;2022-08-20T08:44:51;7.53;;;3.40;;
428;SDS011;201;48.758;9.290;2022-08-20T08:47:19;3.30;;;3.10;;
428;SDS011;201;48.758;9.290;2022-08-20T08:49:58;4.10;;;3.60;;
428;SDS011;201;48.758;9.290;2022-08-20T08:52:27;4.50;;;3.70;;
428;SDS011;201;48.758;9.290;2022-08-20T08:54:57;3.70;;;2.87;;
428;SDS011;201;48.758;9.290;2022-08-20T08:57:25;3.50;;;3.33;;
428;SDS011;201;48.758;9.290;2022-08-20T08:59:58;3.20;;;3.00;;
428;SDS011;201;48.758;9.290;2022-08-20T09:02:26;3.37;;;3.17;;
428;SDS011;201;48.758;9.290;2022-08-20T09:04:55;4.80;;;3.70;;
428;SDS011;201;48.758;9.290;2022-08-20T09:07:22;3.57;;;3.37;;
428;SDS011;201;48.758;9.290;2022-08-20T09:09:51;3.33;;;3.20;;
428;SDS011;201;48.758;9.290;2022-08-20T09:12:18;3.57;;;3.37;;
428;SDS011;201;48.758;9.290;2022-08-20T09:14:48;3.60;;;3.20;;
428;SDS011;201;48.758;9.290;2022-08-20T09:17:16;5.53;;;3.30;;
428;SDS011;201;48.758;9.290;2022-08-20T09:19:43;4.67;;;4.10;;
428;SDS011;201;48.758;9.290;2022-08-20T09:22:14;11.13;;;4.30;;
428;SDS011;201;48.758;9.290;2022-08-20T09:24:41;7.17;;;4.43;;
428;SDS011;201;48.758;9.290;2022-08-20T09:27:07;4.50;;;4.20;;
428;SDS011;201;48.758;9.290;2022-08-20T09:29:34;5.00;;;4.53;;
428;SDS011;201;48.758;9.290;2022-08-20T09:32:42;5.03;;;4.73;;
428;SDS011;201;48.758;9.290;2022-08-20T09:34:50;6.70;;;5.20;;
428;SDS011;201;48.758;9.290;2022-08-20T09:37:22;6.40;;;4.50;;
428;SDS011;201;48.758;9.290;2022-08-20T09:39:49;6.67;;;5.37;;
428;SDS011;201;48.758;9.290;2022-08-20T09:42:16;5.40;;;5.10;;
428;SDS011;201;48.758;9.290;2022-08-20T09:44:46;5.17;;;4.97;;
428;SDS011;201;48.758;9.290;2022-08-20T09:47:12;7.77;;;5.33;;
428;SDS011;201;48.758;9.290;2022-08-20T09:49:38;11.17;;;6.07;;
428;SDS011;201;48.758;9.290;2022-08-20T09:52:05;8.97;;;5.63;;
428;SDS011;201;48.758;9.290;2022-08-20T09:54:33;9.87;;;6.47;;
428;SDS011;201;48.758;9.290;2022-08-20T09:57:02;7.70;;;5.80;;
428;SDS011;201;48.758;9.290;2022-08-20T09:59:29;6.97;;;6.40;;
428;SDS011;201;48.758;9.290;2022-08-20T10:01:56;10.07;;;8.80;;
428;SDS011;201;48.758;9.290;2022-08-20T10:04:21;10.03;;;7.37;;
428;SDS011;201;48.758;9.290;2022-08-20T10:06:47;7.40;;;6.77;;
428;SDS011;201;48.758;9.290;2022-08-20T10:09:13;6.67;;;6.27;;
428;SDS011;201;48.758;9.290;2022-08-20T10:11:39;7.20;;;6.80;;
428;SDS011;201;48.758;9.290;2022-08-20T10:14:04;6.80;;;6.50;;
428;SDS011;201;48.758;9.290;2022-08-20T10:16:32;9.43;;;7.13;;
428;SDS011;201;48.758;9.290;2022-08-20T10:18:57;6.53;;;6.13;;
428;SDS011;201;48.758;9.290;2022-08-20T10:21:23;8.63;;;5.17;;
428;SDS011;201;48.758;9.290;2022-08-20T10:23:48;3.30;;;3.10;;
428;SDS011;201;48.758;9.290;2022-08-20T10:26:14;4.33;;;4.07;;
428;SDS011;201;48.758;9.290;2022-08-20T10:28:40;2.80;;;2.60;;
428;SDS011;201;48.758;9.290;2022-08-20T10:31:07;2.33;;;2.00;;
428;SDS011;201;48.758;9.290;2022-08-20T10:33:35;2.60;;;1.90;;
428;SDS011;201;48.758;9.290;2022-08-20T10:36:07;3.30;;;2.37;;
428;SDS011;201;48.758;9.290;2022-08-20T10:38:35;4.80;;;4.50;;
428;SDS011;201;48.758;9.290;2022-08-20T10:41:00;2.43;;;2.20;;
428;SDS011;201;48.758;9.290;2022-08-20T10:43:26;2.17;;;1.87;;
428;SDS011;201;48.758;9.290;2022-08-20T10:45:52;1.80;;;1.67;;
428;SDS011;201;48.758;9.290;2022-08-20T10:48:18;6.50;;;1.57;;
428;SDS011;201;48.758;9.290;2022-08-20T10:50:44;1.40;;;0.90;;
428;SDS011;201;48.758;9.290;2022-08-20T10:53:09;0.77;;;0.63;;
428;SDS011;201;48.758;9.290;2022-08-20T10:55:35;1.50;;;0.87;;
428;SDS011;201;48.758;9.290;2022-08-20T10:58:03;1.13;;;0.80;;
428;SDS011;201;48.758;9.290;2022-08-20T11:00:30;2.50;;;1.67;;
428;SDS011;201;48.758;9.290;2022-08-20T11:02:56;1.80;;;1.50;;
428;SDS011;201;48.758;9.290;2022-08-20T11:05:21;1.03;;;0.80;;
428;SDS011;201;48.758;9.290;2022-08-20T11:07:47;4.83;;;1.20;;
428;SDS011;201;48.758;9.290;2022-08-20T11:10:12;0.70;;;0.70;;
428;SDS011;201;48.758;9.290;2022-08-20T11:12:38;1.63;;;1.20;;
428;SDS011;201;48.758;9.290;2022-08-20T11:15:04;7.20;;;1.23;;
428;SDS011;201;48.758;9.290;2022-08-20T11:17:32;1.33;;;1.20;;
428;SDS011;201;48.758;9.290;2022-08-20T11:19:59;1.37;;;1.33;;
428;SDS011;201;48.758;9.290;2022-08-20T11:22:25;1.70;;;1.10;;
428;SDS011;201;48.758;9.290;2022-08-20T11:24:51;1.13;;;0.77;;
428;SDS011;201;48.758;9.290;2022-08-20T11:27:22;2.13;;;0.80;;
428;SDS011;201;48.758;9.290;2022-08-20T11:29:59;0.87;;;0.87;;
428;SDS011;201;48.758;9.290;2022-08-20T11:32:25;2.20;;;1.10;;
428;SDS011;201;48.758;9.290;2022-08-20T11:34:51;1.30;;;0.63;;
428;SDS011;201;48.758;9.290;2022-08-20T11:37:18;1.53;;;0.90;;
428;SDS011;201;48.758;9.290;2022-08-20T11:39:46;2.93;;;1.00;;
428;SDS011;201;48.758;9.290;2022-08-20T11:42:11;1.13;;;0.90;;
428;SDS011;201;48.758;9.290;2022-08-20T11:44:37;0.80;;;0.60;;
428;SDS011;201;48.758;9.290;2022-08-20T11:47:03;0.80;;;0.70;;
428;SDS011;201;48.758;9.290;2022-08-20T11:49:30;1.10;;;0.83;;
428;SDS011;201;48.758;9.290;2022-08-20T11:52:00;1.70;;;0.93;;
428;SDS011;201;48.758;9.290;2022-08-20T11:54:26;1.57;;;1.27;;
428;SDS011;201;48.758;9.290;2022-08-20T11:56:56;2.60;;;0.90;;
428;SDS011;201;48.758;9.290;2022-08-20T11:59:23;1.90;;;0.80;;
428;SDS011;201;48.758;9.290;2022-08-20T12:01:49;1.87;;;0.93;;
428;SDS011;201;48.758;9.290;2022-08-20T12:04:14;1.87;;;1.37;;
428;SDS011;201;48.758;9.290;2022-08-20T12:06:40;3.03;;;0.90;;
428;SDS011;201;48.758;9.290;2022-08-20T12:09:05;2.33;;;0.77;;
428;SDS011;201;48.758;9.290;2022-08-20T12:11:31;1.03;;;0.90;;
428;SDS011;201;48.758;9.290;2022-08-20T12:13:56;0.80;;;0.63;;
428;SDS011;201;48.758;9.290;2022-08-20T12:16:22;1.53;;;1.27;;
428;SDS011;201;48.758;9.290;2022-08-20T12:18:47;1.30;;;0.80;;
428;SDS011;201;48.758;9.290;2022-08-20T12:21:13;0.73;;;0.57;;
428;SDS011;201;48.758;9.290;2022-08-20T12:23:42;2.43;;;0.80;;
428;SDS011;201;48.758;9.290;2022-08-20T12:26:08;2.23;;;0.73;;
428;SDS011;201;48.758;9.290;2022-08-20T12:28:34;1.17;;;0.67;;
428;SDS011;201;48.758;9.290;2022-08-20T12:31:00;0.70;;;0.67;;
428;SDS011;201;48.758;9.290;2022-08-20T12:33:25;4.30;;;1.00;;
428;SDS011;201;48.758;9.290;2022-08-20T12:35:51;1.90;;;0.90;;
428;SDS011;201;48.758;9.290;2022-08-20T12:38:16;4.23;;;1.10;;
428;SDS011;201;48.758;9.290;2022-08-20T12:40:45;3.77;;;3.60;;
428;SDS011;201;48.758;9.290;2022-08-20T12:43:10;1.27;;;0.90;;
428;SDS011;201;48.758;9.290;2022-08-20T12:45:36;0.77;;;0.57;;
428;SDS011;201;48.758;9.290;2022-08-20T12:48:03;2.60;;;1.07;;
428;SDS011;201;48.758;9.290;2022-08-20T12:50:31;3.43;;;1.20;;
428;SDS011;201;48.758;9.290;2022-08-20T12:52:58;1.03;;;0.93;;
428;SDS011;201;48.758;9.290;2022-08-20T12:55:24;1.03;;;0.70;;
428;SDS011;201;48.758;9.290;2022-08-20T12:57:51;1.63;;;0.80;;
428;SDS011;201;48.758;9.290;2022-08-20T13:00:42;0.97;;;0.80;;
428;SDS011;201;48.758;9.290;2022-08-20T13:03:09;1.10;;;0.70;;
428;SDS011;201;48.758;9.290;2022-08-20T13:05:36;1.00;;;0.80;;
428;SDS011;201;48.758;9.290;2022-08-20T13:08:07;1.53;;;1.27;;
428;SDS011;201;48.758;9.290;2022-08-20T13:10:35;2.40;;;0.80;;
428;SDS011;201;48.758;9.290;2022-08-20T13:13:08;3.00;;;1.30;;
428;SDS011;201;48.758;9.290;2022-08-20T13:15:35;1.37;;;1.30;;
428;SDS011;201;48.758;9.290;2022-08-20T13:18:01;1.70;;;1.40;;
428;SDS011;201;48.758;9.290;2022-08-20T13:20:28;1.60;;;1.50;;
428;SDS011;201;48.758;9.290;2022-08-20T13:22:54;7.77;;;2.90;;
428;SDS011;201;48.758;9.290;2022-08-20T13:25:20;9.47;;;3.13;;
428;SDS011;201;48.758;9.290;2022-08-20T13:27:47;9.10;;;3.20;;
428;SDS011;201;48.758;9.290;2022-08-20T13:30:15;3.20;;;2.07;;
428;SDS011;201;48.758;9.290;2022-08-20T13:32:42;2.50;;;1.80;;
428;SDS011;201;48.758;9.290;2022-08-20T13:35:08;3.20;;;2.50;;
428;SDS011;201;48.758;9.290;2022-08-20T13:37:35;1.93;;;1.60;;
428;SDS011;201;48.758;9.290;2022-08-20T13:40:02;5.10;;;1.90;;
428;SDS011;201;48.758;9.290;2022-08-20T13:42:29;1.40;;;1.30;;
428;SDS011;201;48.758;9.290;2022-08-20T13:44:54;1.90;;;1.57;;
428;SDS011;201;48.758;9.290;2022-08-20T13:47:25;1.03;;;1.00;;
428;SDS011;201;48.758;9.290;2022-08-20T13:50:00;1.47;;;1.17;;
428;SDS011;201;48.758;9.290;2022-08-20T13:52:32;2.60;;;1.40;;
428;SDS011;201;48.758;9.290;2022-08-20T13:54:57;1.53;;;1.50;;
428;SDS011;201;48.758;9.290;2022-08-20T13:57:23;3.00;;;1.90;;
428;SDS011;201;48.758;9.290;2022-08-20T13:59:50;3.43;;;1.70;;
428;SDS011;201;48.758;9.290;2022-08-20T14:02:18;2.10;;;1.80;;
428;SDS011;201;48.758;9.290;2022-08-20T14:04:44;2.90;;;1.60;;
428;SDS011;201;48.758;9.290;2022-08-20T14:07:12;2.03;;;1.80;;
428;SDS011;201;48.758;9.290;2022-08-20T14:09:47;1.80;;;1.70;;
428;SDS011;201;48.758;9.290;2022-08-20T14:12:15;1.53;;;1.43;;
428;SDS011;201;48.758;9.290;2022-08-20T14:14:41;2.17;;;1.40;;
428;SDS011;201;48.758;9.290;2022-08-20T14:20:08;1.10;;;1.00;;
428;SDS011;201;48.758;9.290;2022-08-20T14:22:36;1.10;;;1.03;;
428;SDS011;201;48.758;9.290;2022-08-20T14:25:02;3.00;;;1.50;;
428;SDS011;201;48.758;9.290;2022-08-20T14:27:30;2.83;;;1.50;;
428;SDS011;201;48.758;9.290;2022-08-20T14:29:57;1.60;;;1.30;;
428;SDS011;201;48.758;9.290;2022-08-20T14:32:23;1.73;;;1.37;;
428;SDS011;201;48.758;9.290;2022-08-20T14:34:48;2.03;;;1.70;;
428;SDS011;201;48.758;9.290;2022-08-20T14:37:18;1.90;;;1.83;;
428;SDS011;201;48.758;9.290;2022-08-20T14:39:47;2.50;;;2.40;;
428;SDS011;201;48.758;9.290;2022-08-20T14:42:14;2.13;;;1.87;;
428;SDS011;201;48.758;9.290;2022-08-20T14:44:40;2.40;;;2.20;;
428;SDS011;201;48.758;9.290;2022-08-20T14:47:10;2.40;;;2.20;;
428;SDS011;201;48.758;9.290;2022-08-20T14:49:40;3.37;;;3.23;;
428;SDS011;201;48.758;9.290;2022-08-20T14:52:06;3.77;;;2.57;;
428;SDS011;201;48.758;9.290;2022-08-20T14:54:31;2.63;;;2.20;;
428;SDS011;201;48.758;9.290;2022-08-20T14:56:58;2.83;;;2.40;;
428;SDS011;201;48.758;9.290;2022-08-20T14:59:23;3.03;;;2.50;;
428;SDS011;201;48.758;9.290;2022-08-20T15:01:49;2.83;;;2.13;;
428;SDS011;201;48.758;9.290;2022-08-20T15:04:14;3.60;;;2.07;;
428;SDS011;201;48.758;9.290;2022-08-20T15:06:42;2.23;;;2.03;;
428;SDS011;201;48.758;9.290;2022-08-20T15:09:08;2.07;;;1.87;;
428;SDS011;201;48.758;9.290;2022-08-20T15:11:34;3.43;;;1.87;;
428;SDS011;201;48.758;9.290;2022-08-20T15:14:02;2.23;;;2.07;;
428;SDS011;201;48.758;9.290;2022-08-20T15:16:27;2.47;;;1.70;;
428;SDS011;201;48.758;9.290;2022-08-20T15:18:53;1.67;;;1.60;;
428;SDS011;201;48.758;9.290;2022-08-20T15:21:18;2.40;;;1.40;;
428;SDS011;201;48.758;9.290;2022-08-20T15:23:44;1.97;;;1.77;;
428;SDS011;201;48.758;9.290;2022-08-20T15:26:10;1.37;;;1.30;;
428;SDS011;201;48.758;9.290;2022-08-20T15:28:36;1.93;;;1.23;;
428;SDS011;201;48.758;9.290;2022-08-20T15:31:07;1.50;;;1.30;;
428;SDS011;201;48.758;9.290;2022-08-20T15:33:34;1.73;;;1.40;;
428;SDS011;201;48.758;9.290;2022-08-20T15:35:59;3.33;;;2.73;;
428;SDS011;201;48.758;9.290;2022-08-20T15:38:25;2.40;;;1.50;;
428;SDS011;201;48.758;9.290;2022-08-20T15:40:51;2.03;;;1.87;;
428;SDS011;201;48.758;9.290;2022-08-20T15:43:16;1.60;;;1.50;;
428;SDS011;201;48.758;9.290;2022-08-20T15:45:42;9.00;;;2.50;;
428;SDS011;201;48.758;9.290;2022-08-20T15:53:24;1.77;;;1.67;;
428;SDS011;201;48.758;9.290;2022-08-20T15:56:03;2.83;;;1.83;;
428;SDS011;201;48.758;9.290;2022-08-20T16:01:37;4.53;;;2.03;;